createdAt,value
2022-08-03T00:00:37.409Z,3.90
2022-08-03T00:03:06.053Z,3.80
2022-08-03T00:05:35.836Z,3.90
2022-08-03T00:08:04.669Z,3.72
2022-08-03T00:10:35.289Z,3.92
2022-08-03T00:13:03.700Z,4.00
2022-08-03T00:15:31.992Z,3.75
2022-08-03T00:18:00.574Z,4.13
2022-08-03T00:20:28.870Z,4.03
2022-08-03T00:22:58.743Z,4.20
2022-08-03T00:25:27.527Z,4.05
2022-08-03T00:27:55.995Z,4.57
2022-08-03T00:30:26.861Z,4.47
2022-08-03T00:33:00.217Z,4.35
2022-08-03T00:35:36.843Z,4.05
2022-08-03T00:38:18.735Z,3.60
2022-08-03T00:40:47.663Z,4.38
2022-08-03T00:43:16.005Z,3.70
2022-08-03T00:45:44.941Z,4.00
2022-08-03T00:48:29.483Z,4.03
2022-08-03T00:51:02.369Z,4.07
2022-08-03T00:53:33.449Z,3.55
2022-08-03T00:56:01.838Z,3.25
2022-08-03T00:58:30.609Z,3.08
2022-08-03T01:00:59.153Z,2.95
2022-08-03T01:03:27.720Z,3.42
2022-08-03T01:06:05.530Z,4.80
2022-08-03T01:08:45.732Z,4.80
2022-08-03T01:11:22.272Z,3.10
2022-08-03T01:14:17.870Z,9.43
2022-08-03T01:16:58.947Z,9.10
2022-08-03T01:19:43.713Z,3.63
2022-08-03T01:25:04.892Z,3.55
2022-08-03T01:27:53.609Z,2.90
2022-08-03T01:30:26.085Z,3.42
2022-08-03T01:33:02.009Z,3.20
2022-08-03T01:35:38.863Z,2.80
2022-08-03T01:38:13.011Z,2.85
2022-08-03T01:40:42.931Z,2.60
2022-08-03T01:44:27.043Z,3.00
2022-08-03T01:46:08.786Z,2.53
2022-08-03T01:48:39.627Z,2.85
2022-08-03T01:51:09.386Z,2.70
2022-08-03T01:53:40.130Z,2.65
2022-08-03T01:56:09.698Z,2.63
2022-08-03T01:58:40.844Z,2.90
2022-08-03T02:01:11.444Z,2.92
2022-08-03T02:03:58.108Z,2.70
2022-08-03T02:06:59.691Z,2.67
2022-08-03T02:09:22.785Z,2.25
2022-08-03T02:11:53.392Z,2.47
2022-08-03T02:14:23.478Z,2.42
2022-08-03T02:16:54.123Z,2.53
2022-08-03T02:19:24.005Z,3.00
2022-08-03T02:21:57.023Z,3.08
2022-08-03T02:24:30.055Z,2.45
2022-08-03T02:27:00.013Z,3.08
2022-08-03T02:29:38.661Z,2.75
2022-08-03T02:32:14.520Z,2.63
2022-08-03T02:34:48.950Z,2.60
2022-08-03T02:37:20.982Z,2.85
2022-08-03T02:39:53.317Z,2.78
2022-08-03T02:42:24.525Z,3.22
2022-08-03T02:44:56.948Z,3.15
2022-08-03T02:47:29.187Z,3.33
2022-08-03T02:50:18.852Z,4.40
2022-08-03T02:52:49.281Z,4.15
2022-08-03T02:55:18.646Z,4.78
2022-08-03T02:57:48.613Z,4.88
2022-08-03T03:00:27.404Z,4.88
2022-08-03T03:03:00.493Z,5.18
2022-08-03T03:05:52.960Z,4.80
2022-08-03T03:08:26.150Z,5.20
2022-08-03T03:11:01.503Z,4.35
2022-08-03T03:13:31.851Z,5.00
2022-08-03T03:16:03.947Z,4.20
2022-08-03T03:18:35.522Z,4.07
2022-08-03T03:21:05.807Z,3.83
2022-08-03T03:23:39.028Z,4.40
2022-08-03T03:26:08.546Z,4.30
2022-08-03T03:28:38.157Z,4.63
2022-08-03T03:31:07.466Z,4.38
2022-08-03T03:33:38.687Z,4.22
2022-08-03T03:36:08.532Z,4.53
2022-08-03T03:38:36.876Z,4.20
2022-08-03T03:41:06.243Z,4.65
2022-08-03T03:43:34.629Z,3.75
2022-08-03T03:46:03.762Z,3.78
2022-08-03T03:48:32.320Z,4.22
2022-08-03T03:51:02.520Z,4.20
2022-08-03T03:53:30.960Z,4.10
2022-08-03T03:56:02.549Z,3.58
2022-08-03T03:58:33.412Z,4.10
2022-08-03T04:01:02.427Z,4.25
2022-08-03T04:03:31.083Z,3.80
2022-08-03T04:06:18.483Z,3.90
2022-08-03T04:09:05.160Z,3.88
2022-08-03T04:11:38.843Z,4.07
2022-08-03T04:14:13.622Z,3.70
2022-08-03T04:16:47.453Z,3.45
2022-08-03T04:19:23.284Z,4.05
2022-08-03T04:21:57.536Z,4.53
2022-08-03T04:24:31.995Z,4.55
2022-08-03T04:29:32.308Z,4.20
2022-08-03T04:32:03.273Z,4.22
2022-08-03T04:34:32.355Z,4.60
2022-08-03T04:37:07.322Z,4.40
2022-08-03T04:39:37.267Z,4.22
2022-08-03T04:42:09.227Z,4.18
2022-08-03T04:44:42.252Z,4.13
2022-08-03T04:47:10.824Z,3.63
2022-08-03T04:49:40.147Z,3.72
2022-08-03T04:52:10.923Z,4.05
2022-08-03T04:54:44.374Z,3.50
2022-08-03T04:57:23.166Z,3.83
2022-08-03T05:00:01.408Z,3.95
2022-08-03T05:02:33.504Z,3.55
2022-08-03T05:05:01.783Z,3.35
2022-08-03T05:07:36.333Z,3.78
2022-08-03T05:10:09.146Z,3.55
2022-08-03T05:12:44.365Z,3.50
2022-08-03T05:15:13.238Z,3.80
2022-08-03T05:17:41.893Z,3.97
2022-08-03T05:20:12.100Z,3.63
2022-08-03T05:22:41.971Z,3.40
2022-08-03T05:25:17.421Z,5.15
2022-08-03T05:27:48.517Z,3.65
2022-08-03T05:30:26.758Z,3.25
2022-08-03T05:33:03.592Z,3.50
2022-08-03T05:35:57.366Z,3.38
2022-08-03T05:38:23.950Z,3.05
2022-08-03T05:41:22.972Z,3.30
2022-08-03T05:43:46.741Z,3.30
2022-08-03T05:46:15.309Z,3.58
2022-08-03T05:48:44.619Z,3.22
2022-08-03T05:51:13.476Z,4.00
2022-08-03T05:53:44.273Z,3.47
2022-08-03T05:56:15.975Z,3.08
2022-08-03T05:58:47.228Z,3.53
2022-08-03T06:01:16.481Z,3.10
2022-08-03T06:03:45.407Z,3.20
2022-08-03T06:06:13.815Z,3.35
2022-08-03T06:08:45.181Z,3.22
2022-08-03T06:11:14.263Z,3.22
2022-08-03T06:13:42.715Z,3.50
2022-08-03T06:16:11.569Z,3.22
2022-08-03T06:18:41.230Z,3.40
2022-08-03T06:21:15.352Z,3.47
2022-08-03T06:23:54.702Z,3.40
2022-08-03T06:26:25.978Z,3.63
2022-08-03T06:28:54.926Z,3.25
2022-08-03T06:31:33.120Z,3.40
2022-08-03T06:34:33.864Z,3.55
2022-08-03T06:36:57.441Z,3.30
2022-08-03T06:39:31.327Z,3.15
2022-08-03T06:41:59.735Z,3.03
2022-08-03T06:44:28.382Z,3.10
2022-08-03T06:46:56.817Z,2.78
2022-08-03T06:49:25.550Z,2.40
2022-08-03T06:52:04.976Z,2.50
2022-08-03T06:54:36.977Z,3.30
2022-08-03T06:57:08.200Z,2.53
2022-08-03T07:00:09.790Z,2.58
2022-08-03T07:02:28.266Z,2.53
2022-08-03T07:04:57.757Z,2.65
2022-08-03T07:07:26.279Z,2.60
2022-08-03T07:09:57.565Z,2.50
2022-08-03T07:12:31.015Z,2.40
2022-08-03T07:15:02.868Z,3.05
2022-08-03T07:17:34.660Z,2.30
2022-08-03T07:20:07.181Z,2.10
2022-08-03T07:22:36.246Z,2.10
2022-08-03T07:25:07.300Z,2.22
2022-08-03T07:27:35.912Z,2.00
2022-08-03T07:30:07.497Z,2.50
2022-08-03T07:32:35.804Z,2.20
2022-08-03T07:35:24.441Z,2.38
2022-08-03T07:37:54.323Z,2.10
2022-08-03T07:40:30.607Z,2.25
2022-08-03T07:43:00.284Z,1.75
2022-08-03T07:45:28.811Z,2.50
2022-08-03T07:47:57.249Z,2.20
2022-08-03T07:50:25.892Z,1.95
2022-08-03T07:52:56.075Z,2.13
2022-08-03T07:55:27.983Z,2.30
2022-08-03T07:58:09.325Z,1.98
2022-08-03T08:00:38.091Z,1.83
2022-08-03T08:03:06.666Z,2.15
2022-08-03T08:05:35.126Z,1.88
2022-08-03T08:08:04.220Z,2.97
2022-08-03T08:10:34.381Z,1.88
2022-08-03T08:13:03.283Z,2.30
2022-08-03T08:15:33.265Z,1.92
2022-08-03T08:18:45.828Z,1.83
2022-08-03T08:21:14.434Z,1.95
2022-08-03T08:23:46.188Z,2.00
2022-08-03T08:26:23.591Z,3.20
2022-08-03T08:28:52.863Z,1.95
2022-08-03T08:31:21.500Z,1.48
2022-08-03T08:34:05.662Z,1.70
2022-08-03T08:36:34.442Z,1.60
2022-08-03T08:39:03.251Z,1.40
2022-08-03T08:41:34.732Z,1.58
2022-08-03T08:44:03.227Z,1.50
2022-08-03T08:46:34.604Z,1.80
2022-08-03T08:49:03.292Z,1.70
2022-08-03T08:51:59.259Z,1.45
2022-08-03T08:54:27.176Z,1.50
2022-08-03T08:57:00.127Z,1.50
2022-08-03T08:59:47.712Z,1.58
2022-08-03T09:02:17.333Z,1.30
2022-08-03T09:04:48.727Z,1.50
2022-08-03T09:07:20.460Z,1.80
2022-08-03T09:10:05.322Z,1.85
2022-08-03T09:12:45.221Z,1.55
2022-08-03T09:15:26.689Z,1.50
2022-08-03T09:17:57.684Z,2.00
2022-08-03T09:20:30.498Z,1.33
2022-08-03T09:23:01.364Z,1.40
2022-08-03T09:25:32.731Z,1.30
2022-08-03T09:28:11.956Z,1.40
2022-08-03T09:30:43.622Z,1.25
2022-08-03T09:33:15.429Z,1.25
2022-08-03T09:35:53.567Z,1.52
2022-08-03T09:38:26.187Z,1.33
2022-08-03T09:40:59.436Z,2.10
2022-08-03T09:43:31.010Z,5.07
2022-08-03T09:46:07.520Z,2.13
2022-08-03T09:48:37.294Z,1.60
2022-08-03T09:51:13.574Z,1.35
2022-08-03T09:54:00.324Z,1.70
2022-08-03T09:56:44.764Z,1.60
2022-08-03T09:59:25.034Z,1.45
2022-08-03T10:01:55.082Z,1.73
2022-08-03T10:04:24.183Z,1.52
2022-08-03T10:07:06.471Z,1.27
2022-08-03T10:09:35.133Z,1.48
2022-08-03T10:12:11.535Z,1.45
2022-08-03T10:14:45.283Z,1.40
2022-08-03T10:17:14.113Z,1.50
2022-08-03T10:19:42.609Z,1.45
2022-08-03T10:22:15.498Z,1.45
2022-08-03T10:24:54.196Z,1.45
2022-08-03T10:27:25.074Z,1.52
2022-08-03T10:29:57.216Z,1.25
2022-08-03T10:32:32.203Z,1.50
2022-08-03T10:35:13.018Z,1.63
2022-08-03T10:37:58.949Z,1.50
2022-08-03T10:40:49.400Z,1.30
2022-08-03T10:43:23.248Z,1.40
2022-08-03T10:45:53.494Z,1.50
2022-08-03T10:48:22.766Z,1.70
2022-08-03T10:56:01.714Z,1.30
2022-08-03T10:58:57.448Z,1.40
2022-08-03T11:01:58.823Z,1.60
2022-08-03T11:04:30.823Z,1.42
2022-08-03T11:07:22.406Z,1.40
2022-08-03T11:09:52.860Z,1.42
2022-08-03T11:12:30.855Z,1.50
2022-08-03T11:15:03.080Z,1.60
2022-08-03T11:17:45.765Z,1.63
2022-08-03T11:20:14.860Z,1.75
2022-08-03T11:22:54.317Z,1.40
2022-08-03T11:25:53.598Z,1.70
2022-08-03T11:28:27.788Z,1.42
2022-08-03T11:30:56.854Z,1.52
2022-08-03T11:33:33.018Z,1.67
2022-08-03T11:36:03.352Z,1.60
2022-08-03T11:38:31.709Z,1.40
2022-08-03T11:41:02.696Z,1.50
2022-08-03T11:43:49.004Z,2.17
2022-08-03T11:46:28.521Z,1.55
2022-08-03T11:49:10.743Z,1.60
2022-08-03T11:51:40.544Z,3.17
2022-08-03T11:54:09.497Z,2.13
2022-08-03T11:56:50.020Z,1.73
2022-08-03T11:59:22.288Z,1.70
2022-08-03T12:01:51.868Z,1.70
2022-08-03T12:04:21.645Z,1.88
2022-08-03T12:07:03.660Z,2.10
2022-08-03T12:09:34.404Z,1.77
2022-08-03T12:12:02.993Z,1.60
2022-08-03T12:14:48.601Z,1.48
2022-08-03T12:17:20.271Z,1.60
2022-08-03T12:19:50.334Z,1.60
2022-08-03T12:22:32.489Z,1.50
2022-08-03T12:25:01.249Z,1.60
2022-08-03T12:27:29.966Z,1.65
2022-08-03T12:30:00.968Z,1.60
2022-08-03T12:32:30.880Z,1.50
2022-08-03T12:35:04.349Z,1.50
2022-08-03T12:37:33.598Z,1.73
2022-08-03T12:40:10.264Z,1.50
2022-08-03T12:42:41.428Z,1.25
2022-08-03T12:45:26.766Z,1.50
2022-08-03T12:47:57.126Z,1.48
2022-08-03T12:50:31.308Z,1.40
2022-08-03T12:53:01.865Z,2.00
2022-08-03T12:55:57.399Z,1.50
2022-08-03T12:58:35.032Z,1.27
2022-08-03T13:01:10.516Z,1.65
2022-08-03T13:03:49.691Z,1.33
2022-08-03T13:06:26.537Z,1.50
2022-08-03T13:09:06.486Z,1.70
2022-08-03T13:11:47.645Z,1.50
2022-08-03T13:14:24.377Z,1.50
2022-08-03T13:16:52.812Z,1.50
2022-08-03T13:19:21.257Z,1.40
2022-08-03T13:22:03.365Z,1.17
2022-08-03T13:24:34.224Z,1.40
2022-08-03T13:28:01.990Z,1.20
2022-08-03T13:29:53.975Z,2.05
2022-08-03T13:32:22.617Z,1.58
2022-08-03T13:34:51.924Z,1.02
2022-08-03T13:37:22.291Z,1.40
2022-08-03T13:40:00.213Z,1.30
2022-08-03T13:42:31.715Z,1.30
2022-08-03T13:45:00.366Z,1.23
2022-08-03T13:47:29.663Z,1.27
2022-08-03T13:50:01.437Z,1.38
2022-08-03T13:52:35.326Z,2.25
2022-08-03T13:55:05.581Z,1.45
2022-08-03T13:58:19.027Z,1.58
2022-08-03T14:00:27.005Z,1.20
2022-08-03T14:03:14.917Z,1.25
2022-08-03T14:05:44.555Z,1.30
2022-08-03T14:08:14.556Z,1.20
2022-08-03T14:10:45.690Z,1.40
2022-08-03T14:13:17.418Z,1.20
2022-08-03T14:15:50.894Z,1.17
2022-08-03T14:18:28.432Z,1.17
2022-08-03T14:21:04.989Z,1.33
2022-08-03T14:23:38.236Z,1.30
2022-08-03T14:26:07.867Z,1.60
2022-08-03T14:28:37.264Z,1.35
2022-08-03T14:32:10.193Z,1.30
2022-08-03T14:33:54.410Z,1.80
2022-08-03T14:36:22.743Z,1.45
2022-08-03T14:38:52.742Z,1.30
2022-08-03T14:41:21.467Z,1.40
2022-08-03T14:44:01.293Z,1.33
2022-08-03T14:46:31.035Z,1.75
2022-08-03T14:50:29.395Z,1.40
2022-08-03T14:51:51.239Z,1.55
2022-08-03T14:56:52.572Z,1.40
2022-08-03T14:59:21.144Z,1.60
2022-08-03T15:02:02.308Z,1.38
2022-08-03T15:04:32.333Z,1.50
2022-08-03T15:07:01.469Z,1.20
2022-08-03T15:09:31.506Z,1.20
2022-08-03T15:12:00.450Z,1.30
2022-08-03T15:14:33.194Z,1.02
2022-08-03T15:17:03.411Z,1.58
2022-08-03T15:20:00.302Z,1.90
2022-08-03T15:22:25.386Z,1.30
2022-08-03T15:26:31.583Z,1.45
2022-08-03T15:28:03.616Z,1.80
2022-08-03T15:30:36.092Z,1.48
2022-08-03T15:33:05.051Z,1.30
2022-08-03T15:35:33.392Z,1.25
2022-08-03T15:38:04.972Z,1.25
2022-08-03T15:40:37.235Z,1.00
2022-08-03T15:43:05.841Z,1.50
2022-08-03T15:45:35.452Z,1.40
2022-08-03T15:48:06.210Z,1.80
2022-08-03T15:50:34.788Z,1.30
2022-08-03T15:53:03.372Z,1.40
2022-08-03T15:55:32.105Z,1.38
2022-08-03T15:59:04.506Z,1.52
2022-08-03T16:00:50.126Z,1.10
2022-08-03T16:03:18.458Z,1.13
2022-08-03T16:05:47.004Z,1.27
2022-08-03T16:08:15.503Z,1.60
2022-08-03T16:10:44.077Z,1.50
2022-08-03T16:13:13.972Z,1.08
2022-08-03T16:15:42.432Z,1.70
2022-08-03T16:18:10.872Z,2.95
2022-08-03T16:20:39.569Z,1.45
2022-08-03T16:23:11.413Z,1.30
2022-08-03T16:25:41.493Z,1.30
2022-08-03T16:28:14.716Z,1.27
2022-08-03T16:30:47.828Z,0.90
2022-08-03T16:35:46.974Z,1.30
2022-08-03T16:38:19.080Z,1.13
2022-08-03T16:40:51.748Z,1.30
2022-08-03T16:43:23.341Z,1.20
2022-08-03T16:45:53.343Z,1.48
2022-08-03T16:48:22.081Z,1.45
2022-08-03T16:50:50.797Z,0.98
2022-08-03T16:53:33.705Z,1.20
2022-08-03T16:56:10.705Z,1.17
2022-08-03T16:58:42.046Z,1.20
2022-08-03T17:01:22.350Z,1.30
2022-08-03T17:04:01.393Z,1.35
2022-08-03T17:06:36.128Z,1.10
2022-08-03T17:09:08.893Z,1.20
2022-08-03T17:11:46.845Z,1.00
2022-08-03T17:14:21.836Z,1.10
2022-08-03T17:16:54.619Z,1.00
2022-08-03T17:19:26.264Z,1.02
2022-08-03T17:22:04.124Z,1.20
2022-08-03T17:24:41.142Z,1.02
2022-08-03T17:28:42.444Z,1.20
2022-08-03T17:30:09.846Z,1.10
2022-08-03T17:32:56.654Z,1.05
2022-08-03T17:35:34.397Z,1.10
2022-08-03T17:38:10.420Z,1.30
2022-08-03T17:40:50.216Z,1.27
2022-08-03T17:44:12.789Z,1.00
2022-08-03T17:46:10.906Z,1.05
2022-08-03T17:48:42.485Z,1.30
2022-08-03T17:51:17.847Z,8.38
2022-08-03T17:53:53.881Z,1.40
2022-08-03T17:56:44.995Z,1.23
2022-08-03T17:59:52.437Z,1.00
2022-08-03T18:02:52.103Z,1.00
2022-08-03T18:05:22.993Z,1.13
2022-08-03T18:08:17.676Z,1.20
2022-08-03T18:10:49.843Z,1.20
2022-08-03T18:13:43.461Z,1.15
2022-08-03T18:16:26.067Z,1.05
2022-08-03T18:19:01.218Z,1.20
2022-08-03T18:22:02.984Z,2.20
2022-08-03T18:24:30.415Z,2.30
2022-08-03T18:27:02.459Z,1.35
2022-08-03T18:29:33.710Z,1.67
2022-08-03T18:34:53.604Z,1.75
2022-08-03T18:37:26.078Z,1.30
2022-08-03T18:39:58.311Z,1.40
2022-08-03T18:42:28.476Z,1.50
2022-08-03T18:45:54.951Z,1.40
2022-08-03T18:48:00.230Z,1.40
2022-08-03T18:50:36.020Z,1.50
2022-08-03T18:53:19.467Z,1.30
2022-08-03T18:56:01.513Z,1.63
2022-08-03T18:58:52.295Z,1.42
2022-08-03T19:01:59.782Z,1.40
2022-08-03T19:04:27.225Z,1.60
2022-08-03T19:07:03.184Z,1.52
2022-08-03T19:09:44.257Z,1.65
2022-08-03T19:12:26.624Z,1.55
2022-08-03T19:15:05.736Z,1.52
2022-08-03T19:17:43.637Z,1.73
2022-08-03T19:20:25.180Z,3.63
2022-08-03T19:22:55.128Z,2.88
2022-08-03T19:25:34.356Z,4.43
2022-08-03T19:28:06.109Z,2.85
2022-08-03T19:30:38.732Z,2.63
2022-08-03T19:33:12.367Z,2.38
2022-08-03T19:35:51.654Z,3.90
2022-08-03T19:38:29.024Z,3.13
2022-08-03T19:41:03.501Z,2.40
2022-08-03T19:43:53.493Z,2.08
2022-08-03T19:46:30.273Z,1.90
2022-08-03T19:49:10.547Z,2.10
2022-08-03T19:52:01.744Z,1.90
2022-08-03T19:54:45.728Z,1.70
2022-08-03T19:57:26.857Z,1.65
2022-08-03T19:59:57.907Z,1.80
2022-08-03T20:02:29.653Z,1.80
2022-08-03T20:05:00.587Z,1.90
2022-08-03T20:07:32.339Z,1.63
2022-08-03T20:10:04.653Z,1.80
2022-08-03T20:12:39.362Z,1.65
2022-08-03T20:15:10.649Z,2.13
2022-08-03T20:17:55.584Z,1.67
2022-08-03T20:20:29.734Z,1.50
2022-08-03T20:23:00.655Z,1.63
2022-08-03T20:25:38.885Z,1.80
2022-08-03T20:28:15.137Z,1.70
2022-08-03T20:30:46.461Z,1.60
2022-08-03T20:33:18.253Z,1.85
2022-08-03T20:35:49.633Z,1.65
2022-08-03T20:38:19.750Z,1.95
2022-08-03T20:40:53.569Z,2.72
2022-08-03T20:43:23.900Z,2.60
2022-08-03T20:46:00.971Z,2.10
2022-08-03T20:48:43.921Z,1.80
2022-08-03T20:51:19.895Z,1.73
2022-08-03T20:54:03.045Z,2.00
2022-08-03T20:56:34.655Z,2.08
2022-08-03T20:59:07.353Z,2.10
2022-08-03T21:01:44.337Z,1.80
2022-08-03T21:04:13.509Z,4.82
2022-08-03T21:09:47.838Z,2.30
2022-08-03T21:12:26.857Z,2.73
2022-08-03T21:13:04.674Z,1.80
2022-08-03T21:13:08.029Z,3.50
2022-08-03T21:15:04.947Z,2.38
2022-08-03T21:17:40.859Z,2.17
2022-08-03T21:20:11.954Z,1.98
2022-08-03T21:22:44.593Z,2.05
2022-08-03T21:25:16.741Z,2.33
2022-08-03T21:27:45.564Z,2.08
2022-08-03T21:30:15.959Z,2.28
2022-08-03T21:32:46.287Z,2.28
2022-08-03T21:35:15.783Z,2.30
2022-08-03T21:37:45.355Z,1.98
2022-08-03T21:40:16.875Z,2.47
2022-08-03T21:42:46.732Z,2.22
2022-08-03T21:45:17.729Z,2.30
2022-08-03T21:47:48.512Z,2.42
2022-08-03T21:50:18.021Z,2.13
2022-08-03T21:52:49.111Z,2.08
2022-08-03T21:55:20.846Z,2.00
2022-08-03T21:57:54.271Z,1.77
2022-08-03T22:00:24.588Z,2.17
2022-08-03T22:02:57.328Z,2.10
2022-08-03T22:05:29.146Z,2.05
2022-08-03T22:08:14.215Z,2.13
2022-08-03T22:10:45.116Z,2.30
2022-08-03T22:13:14.727Z,1.90
2022-08-03T22:15:44.961Z,1.98
2022-08-03T22:18:13.628Z,1.77
2022-08-03T22:20:42.207Z,1.88
2022-08-03T22:23:11.427Z,1.95
2022-08-03T22:25:41.068Z,1.85
2022-08-03T22:28:12.222Z,2.08
2022-08-03T22:30:44.148Z,2.00
2022-08-03T22:33:13.360Z,1.90
2022-08-03T22:35:47.900Z,1.80
2022-08-03T22:38:18.129Z,1.90
2022-08-03T22:40:51.039Z,1.90
2022-08-03T22:43:24.395Z,1.70
2022-08-03T22:46:09.528Z,1.57
2022-08-03T22:48:41.849Z,1.90
2022-08-03T22:51:10.710Z,1.75
2022-08-03T22:53:40.807Z,1.90
2022-08-03T22:56:09.703Z,2.45
2022-08-03T22:58:38.129Z,1.70
2022-08-03T23:01:10.887Z,1.70
2022-08-03T23:04:01.010Z,1.60
2022-08-03T23:06:35.736Z,1.70
2022-08-03T23:09:08.000Z,1.77
2022-08-03T23:11:38.118Z,1.90
2022-08-03T23:14:15.081Z,1.63
2022-08-03T23:16:48.566Z,1.80
2022-08-03T23:19:25.065Z,2.10
2022-08-03T23:22:02.596Z,2.10
2022-08-03T23:24:36.784Z,1.90
2022-08-03T23:27:07.787Z,1.80
2022-08-03T23:29:37.629Z,1.80
2022-08-03T23:32:10.341Z,1.92
2022-08-03T23:34:58.762Z,1.60
2022-08-03T23:37:27.947Z,1.85
2022-08-03T23:39:58.180Z,1.90
2022-08-03T23:42:27.495Z,1.95
2022-08-03T23:44:59.428Z,1.80
2022-08-03T23:47:46.820Z,1.92
2022-08-03T23:50:16.808Z,1.80
2022-08-03T23:52:59.239Z,1.90
2022-08-03T23:55:45.787Z,2.00
2022-08-03T23:58:27.484Z,2.33
